createdAt,value
2018-11-03T00:00:19.330Z,2.00
2018-11-03T00:02:48.481Z,1.62
2018-11-03T00:05:17.532Z,1.75
2018-11-03T00:07:47.414Z,1.62
2018-11-03T00:10:17.194Z,2.22
2018-11-03T00:12:47.262Z,1.50
2018-11-03T00:15:18.008Z,1.90
2018-11-03T00:17:47.706Z,2.00
2018-11-03T00:20:16.841Z,1.40
2018-11-03T00:22:45.950Z,1.67
2018-11-03T00:25:15.828Z,1.77
2018-11-03T00:27:45.929Z,1.57
2018-11-03T00:30:16.234Z,1.52
2018-11-03T00:32:46.130Z,1.60
2018-11-03T00:35:15.290Z,1.42
2018-11-03T00:37:45.230Z,1.70
2018-11-03T00:40:15.529Z,1.25
2018-11-03T00:42:45.273Z,1.60
2018-11-03T00:45:14.649Z,1.50
2018-11-03T00:47:44.357Z,1.70
2018-11-03T00:50:14.706Z,1.87
2018-11-03T00:52:44.562Z,1.67
2018-11-03T00:55:13.993Z,1.60
2018-11-03T00:57:43.889Z,1.92
2018-11-03T01:00:15.986Z,1.62
2018-11-03T01:02:46.322Z,1.70
2018-11-03T01:05:15.380Z,1.55
2018-11-03T01:07:45.686Z,1.52
2018-11-03T01:10:15.786Z,1.30
2018-11-03T01:12:46.056Z,1.62
2018-11-03T01:15:16.429Z,1.50
2018-11-03T01:17:46.493Z,1.72
2018-11-03T01:20:16.733Z,1.65
2018-11-03T01:22:45.951Z,1.85
2018-11-03T01:25:15.118Z,1.65
2018-11-03T01:27:45.505Z,1.35
2018-11-03T01:30:17.163Z,1.80
2018-11-03T01:32:46.977Z,1.35
2018-11-03T01:35:16.052Z,1.40
2018-11-03T01:37:45.429Z,1.50
2018-11-03T01:40:15.533Z,1.47
2018-11-03T01:42:44.626Z,1.77
2018-11-03T01:45:13.706Z,1.45
2018-11-03T01:47:42.749Z,1.95
2018-11-03T01:50:12.335Z,2.08
2018-11-03T01:52:42.418Z,1.85
2018-11-03T01:55:11.485Z,1.67
2018-11-03T01:57:41.134Z,1.92
2018-11-03T02:00:11.090Z,1.70
2018-11-03T02:02:41.031Z,2.00
2018-11-03T02:05:10.691Z,1.62
2018-11-03T02:07:40.873Z,2.70
2018-11-03T02:10:11.726Z,1.92
2018-11-03T02:12:41.732Z,1.62
2018-11-03T02:15:10.865Z,1.70
2018-11-03T02:17:39.922Z,2.22
2018-11-03T02:20:10.002Z,1.85
2018-11-03T02:22:40.445Z,1.60
2018-11-03T02:25:09.907Z,1.60
2018-11-03T02:27:38.978Z,2.00
2018-11-03T02:30:09.506Z,1.90
2018-11-03T02:32:39.510Z,1.92
2018-11-03T02:35:10.358Z,1.62
2018-11-03T02:38:10.998Z,1.80
2018-11-03T02:40:40.446Z,1.65
2018-11-03T02:43:09.495Z,1.82
2018-11-03T02:45:38.607Z,1.80
2018-11-03T02:48:07.954Z,1.98
2018-11-03T02:50:37.001Z,1.82
2018-11-03T02:53:07.270Z,1.35
2018-11-03T02:55:36.362Z,2.08
2018-11-03T02:58:06.200Z,1.87
2018-11-03T03:00:35.399Z,1.90
2018-11-03T03:03:04.710Z,2.08
2018-11-03T03:05:34.910Z,1.60
2018-11-03T03:08:04.583Z,1.95
2018-11-03T03:10:33.622Z,1.60
2018-11-03T03:13:03.842Z,1.92
2018-11-03T03:15:32.903Z,2.17
2018-11-03T03:18:02.034Z,1.87
2018-11-03T03:20:31.094Z,1.65
2018-11-03T03:23:00.267Z,1.80
2018-11-03T03:25:30.116Z,2.15
2018-11-03T03:27:59.182Z,1.75
2018-11-03T03:30:29.559Z,1.50
2018-11-03T03:32:59.674Z,1.77
2018-11-03T03:35:29.023Z,1.80
2018-11-03T03:37:58.605Z,1.70
2018-11-03T03:40:27.662Z,1.85
2018-11-03T03:42:56.706Z,1.77
2018-11-03T03:45:25.781Z,1.72
2018-11-03T03:47:54.822Z,1.90
2018-11-03T03:50:23.942Z,1.72
2018-11-03T03:52:54.275Z,2.02
2018-11-03T03:55:23.317Z,1.47
2018-11-03T03:57:52.382Z,1.80
2018-11-03T04:00:21.492Z,1.65
2018-11-03T04:02:51.168Z,1.57
2018-11-03T04:05:21.007Z,1.40
2018-11-03T04:07:50.664Z,1.62
2018-11-03T04:10:19.732Z,1.60
2018-11-03T04:12:48.918Z,1.52
2018-11-03T04:15:17.966Z,1.65
2018-11-03T04:17:47.029Z,1.55
2018-11-03T04:20:16.144Z,1.95
2018-11-03T04:22:45.198Z,1.72
2018-11-03T04:25:14.255Z,1.80
2018-11-03T04:27:43.307Z,1.52
2018-11-03T04:30:13.917Z,1.65
2018-11-03T04:32:44.652Z,1.70
2018-11-03T04:35:13.744Z,1.82
2018-11-03T04:37:43.299Z,1.87
2018-11-03T04:40:12.989Z,1.77
2018-11-03T04:42:42.598Z,2.05
2018-11-03T04:45:12.351Z,2.10
2018-11-03T04:47:42.062Z,2.05
2018-11-03T04:50:11.150Z,2.05
2018-11-03T04:52:41.894Z,2.30
2018-11-03T04:55:11.012Z,1.98
2018-11-03T04:57:39.991Z,1.77
2018-11-03T05:00:09.554Z,2.15
2018-11-03T05:02:40.326Z,2.27
2018-11-03T05:05:09.366Z,2.02
2018-11-03T05:07:38.905Z,2.12
2018-11-03T05:10:08.709Z,1.70
2018-11-03T05:12:38.308Z,1.55
2018-11-03T05:15:07.392Z,1.40
2018-11-03T05:17:36.570Z,2.12
2018-11-03T05:20:05.765Z,2.08
2018-11-03T05:22:34.964Z,1.90
2018-11-03T05:25:04.136Z,1.50
2018-11-03T05:27:34.252Z,1.57
2018-11-03T05:30:04.610Z,1.70
2018-11-03T05:32:34.275Z,1.87
2018-11-03T05:35:03.362Z,1.72
2018-11-03T05:37:32.726Z,1.87
2018-11-03T05:40:02.553Z,2.22
2018-11-03T05:42:31.954Z,2.40
2018-11-03T05:45:00.997Z,2.25
2018-11-03T05:47:30.086Z,1.90
2018-11-03T05:49:59.183Z,1.95
2018-11-03T05:52:28.853Z,1.95
2018-11-03T05:54:57.910Z,1.52
2018-11-03T05:57:28.441Z,1.95
2018-11-03T05:59:58.580Z,2.00
2018-11-03T06:02:27.766Z,1.90
2018-11-03T06:04:56.829Z,2.00
2018-11-03T06:07:26.637Z,1.65
2018-11-03T06:09:55.746Z,1.82
2018-11-03T06:12:24.817Z,1.55
2018-11-03T06:14:53.977Z,2.33
2018-11-03T06:17:23.298Z,2.10
2018-11-03T06:19:52.422Z,2.10
2018-11-03T06:22:21.544Z,1.90
2018-11-03T06:24:51.595Z,2.45
2018-11-03T06:27:20.656Z,2.00
2018-11-03T06:29:50.327Z,2.33
2018-11-03T06:32:20.149Z,2.08
2018-11-03T06:34:49.211Z,2.00
2018-11-03T06:37:18.938Z,2.25
2018-11-03T06:39:48.655Z,2.62
2018-11-03T06:42:17.740Z,2.98
2018-11-03T06:44:46.819Z,3.40
2018-11-03T06:47:15.911Z,2.80
2018-11-03T06:49:45.010Z,3.17
2018-11-03T06:52:14.598Z,3.37
2018-11-03T06:54:44.378Z,3.87
2018-11-03T06:57:13.429Z,2.92
2018-11-03T06:59:43.147Z,2.37
2018-11-03T07:02:12.190Z,2.85
2018-11-03T07:04:41.240Z,3.10
2018-11-03T07:07:10.531Z,2.87
2018-11-03T07:09:40.395Z,2.35
2018-11-03T07:12:09.532Z,2.77
2018-11-03T07:14:38.537Z,8.18
2018-11-03T07:17:07.941Z,8.37
2018-11-03T07:19:38.286Z,9.10
2018-11-03T07:22:07.909Z,6.30
2018-11-03T07:24:37.398Z,4.53
2018-11-03T07:27:07.476Z,4.73
2018-11-03T07:29:36.917Z,3.97
2018-11-03T07:32:06.869Z,3.50
2018-11-03T07:34:35.982Z,3.17
2018-11-03T07:37:06.733Z,3.17
2018-11-03T07:39:36.123Z,2.55
2018-11-03T07:42:05.881Z,2.95
2018-11-03T07:44:34.962Z,2.60
2018-11-03T07:47:04.119Z,2.90
2018-11-03T07:49:33.339Z,2.33
2018-11-03T07:52:03.906Z,2.25
2018-11-03T07:54:33.461Z,2.52
2018-11-03T07:57:04.207Z,3.10
2018-11-03T07:59:33.341Z,2.60
2018-11-03T08:02:02.400Z,2.70
2018-11-03T08:04:31.589Z,2.58
2018-11-03T08:07:00.666Z,2.75
2018-11-03T08:09:30.231Z,3.40
2018-11-03T08:11:59.307Z,3.70
2018-11-03T08:14:30.133Z,3.20
2018-11-03T08:16:59.606Z,3.30
2018-11-03T08:19:28.869Z,3.30
2018-11-03T08:21:57.994Z,2.47
2018-11-03T08:24:27.990Z,2.92
2018-11-03T08:26:57.094Z,2.62
2018-11-03T08:29:26.122Z,3.52
2018-11-03T08:31:56.215Z,3.72
2018-11-03T08:34:25.296Z,3.67
2018-11-03T08:36:55.313Z,4.33
2018-11-03T08:39:24.633Z,4.78
2018-11-03T08:41:53.669Z,4.15
2018-11-03T08:44:22.868Z,4.17
2018-11-03T08:46:52.342Z,4.57
2018-11-03T08:49:21.526Z,3.75
2018-11-03T08:51:51.206Z,4.85
2018-11-03T08:54:21.459Z,4.08
2018-11-03T08:56:51.228Z,4.35
2018-11-03T08:59:20.462Z,3.87
2018-11-03T09:01:49.570Z,5.05
2018-11-03T09:04:19.391Z,3.60
2018-11-03T09:06:48.492Z,4.00
2018-11-03T09:09:18.686Z,4.03
2018-11-03T09:11:47.814Z,4.08
2018-11-03T09:14:18.575Z,4.10
2018-11-03T09:16:47.590Z,4.70
2018-11-03T09:19:19.273Z,4.40
2018-11-03T09:21:50.377Z,4.40
2018-11-03T09:24:19.490Z,3.87
2018-11-03T09:26:48.567Z,4.53
2018-11-03T09:29:18.418Z,4.60
2018-11-03T09:31:49.067Z,4.30
2018-11-03T09:34:18.663Z,3.85
2018-11-03T09:36:48.229Z,4.40
2018-11-03T09:39:17.445Z,4.20
2018-11-03T09:41:46.490Z,4.17
2018-11-03T09:44:15.673Z,4.50
2018-11-03T09:46:45.000Z,3.92
2018-11-03T09:49:14.159Z,3.92
2018-11-03T09:51:43.886Z,3.80
2018-11-03T09:54:14.214Z,4.22
2018-11-03T09:56:43.405Z,3.33
2018-11-03T09:59:12.666Z,3.20
2018-11-03T10:01:42.882Z,3.65
2018-11-03T10:04:11.954Z,3.10
2018-11-03T10:06:41.208Z,4.08
2018-11-03T10:09:10.982Z,4.37
2018-11-03T10:11:40.158Z,3.85
2018-11-03T10:14:10.478Z,3.00
2018-11-03T10:16:39.718Z,4.03
2018-11-03T10:19:09.406Z,4.20
2018-11-03T10:21:38.494Z,3.87
2018-11-03T10:24:07.753Z,3.90
2018-11-03T10:26:37.032Z,3.12
2018-11-03T10:29:06.441Z,3.62
2018-11-03T10:31:35.918Z,3.22
2018-11-03T10:34:06.133Z,3.10
2018-11-03T10:36:36.335Z,3.12
2018-11-03T10:39:09.690Z,3.30
2018-11-03T10:41:38.881Z,3.15
2018-11-03T10:44:08.546Z,3.17
2018-11-03T10:46:38.474Z,2.75
2018-11-03T10:49:08.369Z,2.90
2018-11-03T10:51:38.421Z,3.00
2018-11-03T10:54:08.417Z,3.45
2018-11-03T10:56:37.472Z,2.65
2018-11-03T10:59:06.591Z,3.08
2018-11-03T11:01:41.514Z,3.27
2018-11-03T11:04:16.120Z,2.40
2018-11-03T11:06:51.982Z,3.35
2018-11-03T11:09:27.873Z,2.40
2018-11-03T11:12:02.476Z,2.77
2018-11-03T11:14:31.776Z,2.47
2018-11-03T11:17:01.666Z,2.67
2018-11-03T11:19:30.655Z,2.40
2018-11-03T11:21:59.712Z,2.52
2018-11-03T11:24:28.789Z,2.20
2018-11-03T11:26:57.848Z,2.15
2018-11-03T11:29:26.997Z,2.45
2018-11-03T11:31:56.894Z,2.70
2018-11-03T11:34:27.905Z,2.15
2018-11-03T11:36:57.650Z,2.60
2018-11-03T11:39:26.767Z,2.60
2018-11-03T11:41:57.498Z,2.27
2018-11-03T11:44:27.255Z,2.25
2018-11-03T11:46:56.675Z,2.40
2018-11-03T11:49:25.902Z,2.40
2018-11-03T11:51:56.227Z,2.27
2018-11-03T11:54:25.278Z,1.87
2018-11-03T11:56:54.305Z,2.35
2018-11-03T11:59:23.422Z,2.00
2018-11-03T12:01:53.017Z,2.02
2018-11-03T12:04:22.088Z,2.42
2018-11-03T12:06:51.147Z,2.37
2018-11-03T12:09:20.922Z,2.17
2018-11-03T12:11:50.002Z,2.77
2018-11-03T12:14:20.718Z,2.12
2018-11-03T12:16:50.278Z,2.37
2018-11-03T12:19:19.627Z,1.95
2018-11-03T12:21:48.674Z,2.50
2018-11-03T12:24:18.512Z,2.10
2018-11-03T12:26:47.618Z,2.52
2018-11-03T12:29:17.035Z,2.17
2018-11-03T12:31:46.516Z,1.90
2018-11-03T12:34:16.284Z,2.83
2018-11-03T12:36:46.177Z,2.83
2018-11-03T12:39:15.954Z,2.25
2018-11-03T12:41:45.058Z,2.35
2018-11-03T12:44:14.143Z,2.35
2018-11-03T12:46:43.885Z,2.60
2018-11-03T12:49:13.315Z,2.77
2018-11-03T12:51:42.881Z,2.52
2018-11-03T12:54:12.691Z,2.62
2018-11-03T12:56:41.823Z,2.70
2018-11-03T12:59:11.149Z,3.30
2018-11-03T13:01:40.093Z,3.37
2018-11-03T13:04:09.196Z,3.05
2018-11-03T13:06:38.394Z,3.52
2018-11-03T13:09:09.956Z,3.47
2018-11-03T13:11:40.026Z,3.58
2018-11-03T13:14:09.094Z,4.10
2018-11-03T13:16:39.018Z,3.33
2018-11-03T13:19:08.098Z,3.70
2018-11-03T13:21:37.183Z,3.92
2018-11-03T13:24:06.781Z,3.62
2018-11-03T13:26:36.020Z,4.90
2018-11-03T13:29:05.669Z,3.83
2018-11-03T13:31:35.500Z,3.95
2018-11-03T13:34:05.927Z,3.50
2018-11-03T13:36:35.022Z,3.62
2018-11-03T13:39:06.774Z,3.77
2018-11-03T13:41:35.853Z,4.00
2018-11-03T13:44:05.109Z,3.85
2018-11-03T13:46:34.219Z,4.62
2018-11-03T13:49:03.619Z,4.22
2018-11-03T13:51:33.620Z,5.00
2018-11-03T13:54:03.517Z,4.97
2018-11-03T13:56:32.598Z,4.45
2018-11-03T13:59:01.863Z,4.53
2018-11-03T14:01:30.982Z,4.50
2018-11-03T14:04:00.033Z,4.28
2018-11-03T14:06:29.833Z,4.55
2018-11-03T14:08:59.820Z,4.33
2018-11-03T14:11:28.950Z,4.70
2018-11-03T14:13:58.831Z,4.37
2018-11-03T14:16:28.529Z,5.08
2018-11-03T14:18:57.583Z,5.30
2018-11-03T14:21:26.658Z,5.08
2018-11-03T14:23:55.743Z,4.30
2018-11-03T14:26:24.899Z,4.33
2018-11-03T14:28:54.247Z,4.65
2018-11-03T14:31:23.925Z,3.98
2018-11-03T14:33:53.743Z,3.15
2018-11-03T14:36:23.042Z,4.00
2018-11-03T14:38:53.646Z,3.50
2018-11-03T14:41:22.902Z,3.40
2018-11-03T14:43:51.974Z,3.60
2018-11-03T14:46:21.079Z,3.47
2018-11-03T14:48:50.651Z,3.22
2018-11-03T14:51:20.000Z,3.47
2018-11-03T14:53:51.110Z,2.95
2018-11-03T14:56:21.233Z,3.10
2018-11-03T14:58:50.406Z,2.92
2018-11-03T15:01:20.156Z,3.20
2018-11-03T15:03:49.257Z,2.80
2018-11-03T15:06:19.821Z,3.22
2018-11-03T15:08:50.185Z,2.92
2018-11-03T15:11:19.324Z,3.02
2018-11-03T15:13:49.109Z,2.87
2018-11-03T15:16:18.094Z,2.83
2018-11-03T15:18:47.171Z,3.10
2018-11-03T15:21:16.492Z,3.00
2018-11-03T15:23:46.192Z,3.10
2018-11-03T15:26:15.358Z,3.12
2018-11-03T15:28:44.417Z,3.00
2018-11-03T15:31:14.623Z,2.87
2018-11-03T15:33:45.292Z,3.30
2018-11-03T15:36:14.371Z,3.72
2018-11-03T15:38:44.162Z,3.83
2018-11-03T15:41:13.326Z,3.70
2018-11-03T15:43:42.338Z,3.70
2018-11-03T15:46:11.811Z,3.85
2018-11-03T15:48:41.662Z,4.25
2018-11-03T15:51:12.163Z,3.90
2018-11-03T15:53:41.601Z,4.05
2018-11-03T15:56:10.677Z,4.28
2018-11-03T15:58:39.849Z,4.17
2018-11-03T16:01:08.933Z,4.17
2018-11-03T16:03:38.895Z,4.67
2018-11-03T16:06:08.806Z,4.08
2018-11-03T16:08:38.507Z,4.92
2018-11-03T16:11:08.430Z,4.37
2018-11-03T16:13:37.797Z,4.03
2018-11-03T16:16:06.850Z,3.83
2018-11-03T16:18:35.965Z,3.72
2018-11-03T16:21:05.586Z,3.52
2018-11-03T16:23:34.758Z,3.40
2018-11-03T16:26:04.078Z,4.25
2018-11-03T16:28:33.148Z,3.20
2018-11-03T16:31:02.635Z,3.70
2018-11-03T16:33:33.050Z,4.60
2018-11-03T16:36:03.072Z,5.45
2018-11-03T16:38:33.028Z,6.72
2018-11-03T16:41:01.930Z,7.10
2018-11-03T16:43:31.002Z,8.13
2018-11-03T16:46:00.111Z,6.85
2018-11-03T16:48:29.198Z,7.60
2018-11-03T16:50:58.566Z,7.50
2018-11-03T16:53:29.909Z,7.47
2018-11-03T16:55:59.007Z,7.80
2018-11-03T16:58:28.124Z,9.00
2018-11-03T17:00:58.110Z,8.95
2018-11-03T17:03:28.045Z,10.08
2018-11-03T17:05:57.114Z,9.30
2018-11-03T17:08:26.934Z,9.53
2018-11-03T17:10:56.713Z,9.13
2018-11-03T17:13:26.003Z,9.58
2018-11-03T17:15:55.098Z,8.55
2018-11-03T17:18:24.183Z,10.80
2018-11-03T17:20:53.496Z,8.28
2018-11-03T17:23:22.635Z,8.25
2018-11-03T17:25:53.083Z,8.18
2018-11-03T17:28:22.173Z,8.23
2018-11-03T17:30:52.538Z,8.33
2018-11-03T17:33:21.986Z,8.70
2018-11-03T17:35:51.219Z,8.15
2018-11-03T17:38:20.706Z,7.97
2018-11-03T17:40:49.764Z,7.58
2018-11-03T17:43:18.873Z,7.55
2018-11-03T17:45:47.971Z,7.03
2018-11-03T17:48:17.054Z,7.35
2018-11-03T17:50:46.216Z,7.05
2018-11-03T17:53:16.535Z,7.10
2018-11-03T17:55:46.186Z,6.60
2018-11-03T17:58:15.290Z,6.60
2018-11-03T18:00:45.102Z,6.47
2018-11-03T18:03:14.282Z,6.15
2018-11-03T18:05:43.557Z,5.60
2018-11-03T18:08:13.722Z,5.78
2018-11-03T18:10:42.818Z,6.17
2018-11-03T18:13:12.018Z,5.80
2018-11-03T18:15:41.165Z,6.53
2018-11-03T18:18:11.166Z,7.45
2018-11-03T18:20:40.390Z,7.55
2018-11-03T18:23:09.480Z,8.98
2018-11-03T18:25:39.239Z,7.78
2018-11-03T18:28:08.349Z,7.55
2018-11-03T18:30:37.882Z,6.75
2018-11-03T18:33:08.242Z,7.62
2018-11-03T18:35:37.210Z,7.80
2018-11-03T18:38:06.754Z,6.08
2018-11-03T18:40:35.918Z,5.85
2018-11-03T18:43:05.656Z,7.47
2018-11-03T18:45:34.768Z,6.87
2018-11-03T18:48:04.470Z,6.12
2018-11-03T18:50:33.974Z,6.80
2018-11-03T18:53:03.605Z,6.80
2018-11-03T18:55:32.799Z,6.47
2018-11-03T18:58:02.306Z,5.80
2018-11-03T19:00:31.449Z,5.85
2018-11-03T19:03:00.547Z,4.53
2018-11-03T19:05:29.798Z,5.37
2018-11-03T19:07:59.474Z,5.87
2018-11-03T19:10:28.557Z,5.20
2018-11-03T19:12:57.775Z,5.78
2018-11-03T19:15:27.014Z,5.40
2018-11-03T19:17:56.097Z,5.37
2018-11-03T19:20:25.247Z,5.42
2018-11-03T19:22:54.338Z,5.15
2018-11-03T19:25:23.587Z,5.17
2018-11-03T19:27:52.649Z,4.97
2018-11-03T19:30:22.900Z,5.12
2018-11-03T19:32:52.715Z,5.12
2018-11-03T19:35:22.077Z,4.67
2018-11-03T19:37:52.041Z,4.25
2018-11-03T19:40:21.147Z,5.20
2018-11-03T19:42:50.684Z,5.12
2018-11-03T19:45:19.759Z,4.92
2018-11-03T19:47:49.712Z,4.65
2018-11-03T19:50:19.116Z,4.97
2018-11-03T19:52:48.825Z,4.75
2018-11-03T19:55:18.665Z,4.95
2018-11-03T19:57:48.643Z,4.78
2018-11-03T20:00:17.935Z,5.17
2018-11-03T20:02:47.684Z,5.17
2018-11-03T20:05:17.257Z,4.62
2018-11-03T20:07:47.050Z,4.25
2018-11-03T20:10:16.330Z,4.22
2018-11-03T20:12:45.759Z,4.97
2018-11-03T20:15:14.819Z,4.70
2018-11-03T20:17:44.159Z,4.28
2018-11-03T20:20:13.916Z,4.45
2018-11-03T20:22:43.087Z,4.40
2018-11-03T20:25:12.780Z,4.33
2018-11-03T20:27:41.952Z,4.12
2018-11-03T20:30:14.925Z,3.85
2018-11-03T20:32:45.344Z,5.12
2018-11-03T20:35:14.795Z,4.50
2018-11-03T20:37:44.637Z,4.05
2018-11-03T20:40:14.532Z,4.03
2018-11-03T20:42:43.693Z,3.98
2018-11-03T20:45:13.784Z,4.12
2018-11-03T20:47:43.509Z,3.95
2018-11-03T20:50:13.696Z,3.95
2018-11-03T20:52:43.535Z,4.12
2018-11-03T20:55:12.902Z,3.52
2018-11-03T20:57:42.766Z,3.72
2018-11-03T21:00:14.078Z,3.87
2018-11-03T21:02:44.860Z,4.37
2018-11-03T21:05:14.339Z,3.72
2018-11-03T21:07:44.518Z,4.10
2018-11-03T21:10:13.591Z,3.58
2018-11-03T21:12:42.689Z,3.83
2018-11-03T21:15:12.245Z,3.70
2018-11-03T21:17:54.575Z,3.47
2018-11-03T21:20:32.150Z,3.90
2018-11-03T21:24:29.128Z,3.50
2018-11-03T21:26:59.234Z,4.03
2018-11-03T21:29:29.561Z,5.62
2018-11-03T21:31:59.998Z,5.87
2018-11-03T21:34:29.814Z,6.20
2018-11-03T21:37:00.350Z,6.53
2018-11-03T21:39:30.040Z,5.67
2018-11-03T21:42:00.262Z,5.47
2018-11-03T21:44:29.573Z,6.30
2018-11-03T21:46:58.936Z,5.75
2018-11-03T21:49:29.240Z,6.60
2018-11-03T21:51:59.171Z,6.50
2018-11-03T21:54:28.432Z,6.10
2018-11-03T21:56:57.652Z,5.92
2018-11-03T21:59:26.900Z,6.08
2018-11-03T22:01:56.398Z,6.17
2018-11-03T22:04:27.818Z,6.28
2018-11-03T22:06:57.572Z,6.08
2018-11-03T22:09:27.863Z,5.95
2018-11-03T22:11:57.697Z,6.67
2018-11-03T22:14:28.210Z,5.75
2018-11-03T22:16:57.481Z,6.00
2018-11-03T22:19:26.698Z,6.28
2018-11-03T22:21:55.858Z,5.65
2018-11-03T22:24:25.095Z,5.85
2018-11-03T22:26:54.726Z,6.87
2018-11-03T22:29:24.460Z,5.97
2018-11-03T22:31:54.726Z,6.00
2018-11-03T22:34:24.444Z,6.17
2018-11-03T22:36:53.805Z,5.25
2018-11-03T22:39:23.844Z,5.15
2018-11-03T22:41:53.028Z,5.53
2018-11-03T22:44:23.402Z,5.17
2018-11-03T22:46:52.518Z,5.90
2018-11-03T22:49:22.633Z,5.08
2018-11-03T22:51:52.288Z,4.78
2018-11-03T22:54:21.582Z,5.15
2018-11-03T22:56:51.476Z,4.90
2018-11-03T22:59:20.770Z,4.28
2018-11-03T23:01:50.217Z,4.78
2018-11-03T23:04:19.368Z,4.20
2018-11-03T23:06:49.349Z,4.37
2018-11-03T23:09:18.898Z,4.40
2018-11-03T23:11:48.227Z,4.45
2018-11-03T23:14:18.569Z,4.67
2018-11-03T23:16:47.823Z,4.10
2018-11-03T23:19:18.130Z,4.33
2018-11-03T23:21:47.211Z,3.85
2018-11-03T23:24:16.594Z,4.10
2018-11-03T23:26:45.774Z,4.35
2018-11-03T23:29:15.093Z,4.08
2018-11-03T23:31:45.223Z,4.70
2018-11-03T23:34:14.940Z,4.25
2018-11-03T23:36:44.415Z,3.35
2018-11-03T23:39:14.387Z,3.47
2018-11-03T23:41:43.481Z,4.28
2018-11-03T23:44:12.693Z,3.98
2018-11-03T23:46:42.571Z,3.80
2018-11-03T23:49:11.715Z,3.75
2018-11-03T23:51:42.214Z,4.37
2018-11-03T23:54:12.077Z,3.77
2018-11-03T23:56:41.226Z,3.62
2018-11-03T23:59:10.497Z,3.95
